Accueil
METAR-TAF:

METAR-TAF

Aéroports :

Châteaudun, France

Base aérienne 279 Châteaudun

latitude: 48-03N, longitude: 001-23E, altitude: 134 m

Observation

Le bulletin a été fait il y a 25 minutes, à 22:30 UTC
Vent 4 kt de sud-est
Température 15°C
Humidité 82%
Pression 1015 hPa
Visibilité 10 km ou plus
pas de nuages en-dessous de 1500 mètres et pas de cumulonimbus.

METAR: LFOC 212230Z AUTO 13004KT CAVOK 15/12 Q1015

Heure: 00:55 (22:55 UTC)

Prévision

Le bulletin a été fait il y a 38 heures et 55 minutes, à 08:00 UTC
Prévision valable du 20 à 09 UTC au 21 à 09 UTC
Vent 5 kt de nord/nord-est
Visibilité 10 km ou plus
pas de nuages en-dessous de 1500 mètres et pas de cumulonimbus.
Temporairement
du 20 à 15 UTC au 20 à 21 UTC
Nuages épars à une hauteur de 4000 ft

TAF: LFOC 200800Z 2009/2109 03005KT CAVOK TEMPO 2015/2021 SCT040

Observations et prévisions météorologiques de plus de 4000 aéroports (messages METAR et TAF).

Les stations disponibles sont représentées par des disques jaunes et rouges sur la carte.

Passer la souris dessus pour voir le nom de la station.

Cliquer dessus pour voir les observations et prévisions météorologiques.

Pour changer de carte: cliquez sur les boutons verts avec une croix noire pour zoomer, sur le bouton vert avec un tiret pour effectuer un zoom arrière, ou sur les flèches vertes pour les cartes adjacentes.


METAR-TAF: